Time;durP1;ratioP1;P1;durP2;ratioP2;P2;SDS_P1;SDS_P2;PMS_P1;PMS_P2;Temp;Humidity;BMP_temperature;BMP_pressure;BME280_temperature;BME280_humidity;BME280_pressure;Samples;Min_cycle;Max_cycle;Signal;HPM_P1;HPM_P2
2022/06/17 00:01:00;;;;;;;24.23;21.80;;;;;;;13.25;88.96;102335.34;5033173;28;20475;-46
2022/06/17 00:03:31;;;;;;;24.33;21.13;;;;;;;13.22;89.14;102335.69;5033522;28;20435;-46
2022/06/17 00:06:01;;;;;;;24.00;20.47;;;;;;;13.19;89.32;102333.34;5033561;28;20861;-48
2022/06/17 00:08:32;;;;;;;23.47;21.10;;;;;;;13.16;89.50;102331.84;5032917;28;20466;-48
2022/06/17 00:11:00;;;;;;;24.17;21.67;;;;;;;13.11;89.97;102339.56;5032993;28;20459;-46
2022/06/17 00:13:28;;;;;;;23.87;21.40;;;;;;;13.07;89.99;102337.38;5033156;28;20547;-45
2022/06/17 00:15:56;;;;;;;26.50;20.87;;;;;;;13.07;90.37;102350.78;5033674;28;20432;-46
2022/06/17 00:18:25;;;;;;;25.40;22.70;;;;;;;13.05;90.88;102360.84;5032902;28;20460;-48
2022/06/17 00:20:53;;;;;;;29.87;24.90;;;;;;;12.99;90.95;102343.59;5032794;28;20459;-45
2022/06/17 00:23:24;;;;;;;26.17;21.70;;;;;;;12.99;91.12;102345.47;5032994;28;20428;-43
2022/06/17 00:25:52;;;;;;;24.77;22.10;;;;;;;12.95;91.69;102342.28;5033074;28;20425;-48
2022/06/17 00:28:22;;;;;;;25.23;21.60;;;;;;;12.92;91.35;102342.63;5032529;28;20470;-49
2022/06/17 00:30:50;;;;;;;25.13;22.60;;;;;;;12.89;91.62;102334.97;5033093;28;20452;-46
2022/06/17 00:33:20;;;;;;;31.33;27.20;;;;;;;12.88;91.93;102332.44;5021931;28;20477;-43
2022/06/17 00:35:52;;;;;;;29.50;25.43;;;;;;;12.86;92.26;102321.06;5033169;28;20427;-46
2022/06/17 00:38:22;;;;;;;35.00;29.30;;;;;;;12.85;92.72;102322.91;5032522;28;20470;-43
2022/06/17 00:40:49;;;;;;;26.57;23.67;;;;;;;12.82;92.42;102307.19;5032570;28;20459;-45
2022/06/17 00:43:27;;;;;;;27.73;24.87;;;;;;;12.80;92.88;102313.72;5032727;28;20447;-46
2022/06/17 00:46:05;;;;;;;30.60;27.10;;;;;;;12.77;92.66;102323.78;5032789;28;20424;-44
2022/06/17 00:48:38;;;;;;;28.87;25.73;;;;;;;12.74;92.81;102328.66;5032212;28;20464;-45
2022/06/17 00:51:13;;;;;;;24.90;22.20;;;;;;;12.71;93.57;102329.84;5032274;28;20448;-46
2022/06/17 00:53:47;;;;;;;33.37;26.50;;;;;;;12.68;93.17;102334.69;5032484;28;20834;-45
2022/06/17 00:56:20;;;;;;;29.87;25.63;;;;;;;12.65;93.50;102330.53;5032362;28;20436;-47
2022/06/17 00:58:58;;;;;;;28.13;25.33;;;;;;;12.63;93.58;102324.47;5031844;28;20460;-45
2022/06/17 01:01:27;;;;;;;30.47;26.67;;;;;;;12.57;93.62;102324.34;5031971;28;20470;-48
2022/06/17 01:03:58;;;;;;;28.77;25.73;;;;;;;12.55;93.72;102326.34;5032037;28;20447;-44
2022/06/17 01:06:32;;;;;;;31.00;26.67;;;;;;;12.51;93.65;102341.94;5032211;28;20428;-44
2022/06/17 01:11:52;;;;;;;32.03;28.50;;;;;;;12.45;94.08;102347.97;5031871;28;20444;-44
2022/06/17 01:14:21;;;;;;;32.90;28.63;;;;;;;12.40;94.28;102341.41;5031874;28;20476;-45
2022/06/17 01:16:50;;;;;;;34.23;27.27;;;;;;;12.35;94.06;102339.28;5032313;28;20436;-47
2022/06/17 01:19:28;;;;;;;35.77;29.10;;;;;;;12.31;94.35;102343.28;5031573;28;20810;-48
2022/06/17 01:22:05;;;;;;;30.80;27.50;;;;;;;12.27;94.27;102346.47;5031698;28;20452;-46
2022/06/17 01:24:35;;;;;;;28.07;25.07;;;;;;;12.23;94.60;102347.81;5032141;28;20428;-45
2022/06/17 01:27:04;;;;;;;34.40;28.80;;;;;;;12.17;94.54;102342.13;5030979;28;20439;-43
2022/06/17 01:29:33;;;;;;;33.90;30.40;;;;;;;12.14;94.60;102336.28;5032190;28;20438;-46
2022/06/17 01:32:01;;;;;;;28.90;25.43;;;;;;;12.11;94.74;102348.16;5028877;28;20566;-43
2022/06/17 01:34:29;;;;;;;32.77;28.20;;;;;;;12.09;94.80;102352.00;5023364;28;20471;-46
2022/06/17 01:36:57;;;;;;;34.37;30.70;;;;;;;12.02;94.94;102354.50;5031823;28;20444;-46
2022/06/17 01:39:31;;;;;;;31.10;27.77;;;;;;;12.01;95.27;102351.97;5031764;28;20466;-46
2022/06/17 01:42:00;;;;;;;33.20;28.60;;;;;;;12.00;95.12;102353.00;5031588;28;20452;-45
2022/06/17 01:44:33;;;;;;;33.00;27.23;;;;;;;12.00;95.30;102353.00;5031755;28;20428;-49
2022/06/17 01:47:04;;;;;;;41.10;32.97;;;;;;;11.98;95.72;102363.84;5031272;28;20439;-44
2022/06/17 01:49:36;;;;;;;38.53;31.67;;;;;;;11.95;95.86;102353.47;5031798;28;20428;-43
2022/06/17 01:52:08;;;;;;;31.73;27.53;;;;;;;11.92;95.77;102361.84;5031570;28;20452;-45
2022/06/17 01:54:41;;;;;;;32.30;28.43;;;;;;;11.91;95.53;102357.50;5033151;28;20478;-48
2022/06/17 01:57:16;;;;;;;36.23;29.50;;;;;;;11.91;95.74;102364.69;5035111;28;20435;-46
2022/06/17 01:59:49;;;;;;;41.77;33.97;;;;;;;11.92;96.20;102366.34;5035778;28;20419;-48
2022/06/17 02:02:18;;;;;;;31.73;28.53;;;;;;;11.93;96.30;102384.06;5035408;28;20489;-43
2022/06/17 02:04:57;;;;;;;29.53;26.50;;;;;;;11.93;95.98;102379.56;5035501;28;20438;-43
2022/06/17 02:07:32;;;;;;;34.93;30.87;;;;;;;11.96;96.43;102378.38;5034905;28;20447;-45
2022/06/17 02:10:00;;;;;;;39.37;31.57;;;;;;;11.98;96.32;102371.88;5035614;28;20432;-47
2022/06/17 02:12:31;;;;;;;38.10;31.30;;;;;;;11.99;96.21;102368.19;5035266;28;20456;-44
2022/06/17 02:14:59;;;;;;;47.10;38.03;;;;;;;12.03;96.88;102364.22;5035559;28;20842;-46
2022/06/17 02:17:29;;;;;;;40.43;33.67;;;;;;;12.06;96.76;102371.91;5034969;28;20447;-45
2022/06/17 02:19:57;;;;;;;54.90;40.40;;;;;;;12.09;96.57;102376.06;5035532;28;20452;-43
2022/06/17 02:22:29;;;;;;;50.50;38.40;;;;;;;12.12;96.96;102373.06;5035007;28;20455;-45
2022/06/17 02:25:00;;;;;;;44.60;35.67;;;;;;;12.16;96.75;102369.88;5035142;28;20936;-44
2022/06/17 02:27:31;;;;;;;41.17;36.67;;;;;;;12.21;97.03;102372.06;5034874;28;20460;-45
2022/06/17 02:30:01;;;;;;;46.00;36.80;;;;;;;12.27;96.98;102375.91;5035494;28;20428;-45
2022/06/17 02:32:31;;;;;;;44.97;35.87;;;;;;;12.32;97.01;102363.69;5030355;28;20452;-43
2022/06/17 02:35:01;;;;;;;55.80;41.60;;;;;;;12.40;96.80;102363.66;5029159;28;20834;-46
2022/06/17 02:37:30;;;;;;;55.93;42.30;;;;;;;12.47;97.17;102367.34;5034706;28;20458;-46
2022/06/17 02:40:01;;;;;;;50.33;37.83;;;;;;;12.55;97.15;102358.47;5035148;28;20790;-47
2022/06/17 02:42:36;;;;;;;75.37;43.43;;;;;;;12.63;96.78;102366.50;5034778;28;20466;-43
2022/06/17 02:45:10;;;;;;;91.13;44.30;;;;;;;12.68;96.95;102358.78;5035021;28;20423;-46
2022/06/17 02:47:39;;;;;;;61.53;42.43;;;;;;;12.75;96.91;102357.91;5025021;28;21007;-45
2022/06/17 02:50:08;;;;;;;68.87;43.87;;;;;;;12.82;96.73;102362.56;5014799;28;20437;-43
2022/06/17 02:52:39;;;;;;;78.33;47.80;;;;;;;12.87;97.13;102360.25;5015112;28;20796;-43
2022/06/17 02:55:13;;;;;;;125.47;51.70;;;;;;;12.91;96.72;102358.88;5015058;28;20472;-45
2022/06/17 02:57:45;;;;;;;70.13;42.17;;;;;;;12.97;97.00;102360.84;5014462;28;20461;-43
2022/06/17 03:00:17;;;;;;;56.47;40.43;;;;;;;13.01;96.88;102367.53;5014670;28;20437;-45
2022/06/17 03:02:49;;;;;;;81.57;46.40;;;;;;;13.05;96.92;102358.97;5014751;28;20456;-47
2022/06/17 03:05:21;;;;;;;72.10;45.43;;;;;;;13.09;97.21;102351.47;5014830;28;20425;-45
2022/06/17 03:07:50;;;;;;;46.07;35.87;;;;;;;13.16;96.78;102355.13;5014369;28;20464;-46
2022/06/17 03:10:20;;;;;;;150.53;44.23;;;;;;;13.20;97.21;102353.78;5014317;28;20433;-46
2022/06/17 03:12:56;;;;;;;108.37;41.57;;;;;;;13.23;96.88;102348.06;5014676;28;20441;-44
2022/06/17 03:15:24;;;;;;;67.77;33.30;;;;;;;13.23;96.75;102359.59;5014563;28;20474;-46
2022/06/17 03:17:52;;;;;;;200.47;48.20;;;;;;;13.25;97.25;102346.88;5014285;28;20822;-45
2022/06/17 03:20:24;;;;;;;118.03;41.60;;;;;;;13.31;96.89;102348.03;5013452;28;20437;-43
2022/06/17 03:22:59;;;;;;;51.47;31.03;;;;;;;13.35;97.25;102352.00;5013728;28;20441;-46
2022/06/17 03:25:32;;;;;;;130.50;40.50;;;;;;;13.40;96.80;102349.66;5014233;28;20428;-44
2022/06/17 03:28:04;;;;;;;458.43;81.00;;;;;;;13.44;97.02;102350.94;5013845;28;20554;-46
2022/06/17 03:30:36;;;;;;;115.10;37.20;;;;;;;13.47;97.12;102345.25;5014155;28;20441;-44
2022/06/17 03:33:10;;;;;;;115.67;36.87;;;;;;;13.49;96.93;102340.56;5022250;28;20922;-44
2022/06/17 03:35:40;;;;;;;101.97;33.17;;;;;;;13.54;97.00;102340.84;5033163;28;20696;-43
2022/06/17 03:38:20;;;;;;;214.90;46.03;;;;;;;13.56;97.24;102338.81;5033417;28;20464;-46
2022/06/17 03:40:52;;;;;;;191.13;38.93;;;;;;;13.60;97.05;102339.31;5033798;28;20825;-43
2022/06/17 03:43:26;;;;;;;100.03;33.87;;;;;;;13.67;96.80;102327.72;5033988;28;20451;-43
2022/06/17 03:46:00;;;;;;;231.07;49.83;;;;;;;13.71;97.11;102342.41;5033801;28;20428;-46
2022/06/17 03:48:35;;;;;;;62.67;29.10;;;;;;;13.77;97.34;102340.84;5033199;28;20472;-45
2022/06/17 03:51:03;;;;;;;85.67;30.23;;;;;;;13.81;97.56;102339.50;5033623;28;20443;-48
2022/06/17 03:53:33;;;;;;;77.40;33.70;;;;;;;13.86;97.38;102343.28;5033485;28;20444;-47
2022/06/17 03:56:06;;;;;;;36.00;24.80;;;;;;;13.89;97.40;102338.63;5033521;28;20475;-46
2022/06/17 03:58:38;;;;;;;64.17;33.50;;;;;;;13.89;97.74;102346.66;5033100;28;20472;-47
2022/06/17 04:01:13;;;;;;;92.83;34.57;;;;;;;13.95;97.43;102338.69;5033207;28;21294;-46
2022/06/17 04:03:45;;;;;;;170.37;38.37;;;;;;;13.99;97.36;102336.50;5033495;28;20948;-43
2022/06/17 04:06:17;;;;;;;40.47;25.93;;;;;;;14.04;97.68;102334.09;5033215;28;20424;-43
2022/06/17 04:08:56;;;;;;;99.90;31.07;;;;;;;14.12;97.60;102329.53;5032758;28;21039;-48
2022/06/17 04:11:27;;;;;;;90.27;30.97;;;;;;;14.25;97.49;102327.03;5032755;28;20463;-44
2022/06/17 04:13:58;;;;;;;96.20;31.10;;;;;;;14.41;97.47;102326.09;5033422;28;20441;-48
2022/06/17 04:16:35;;;;;;;66.53;27.40;;;;;;;14.54;97.64;102322.78;5033030;28;20914;-46
2022/06/17 04:19:12;;;;;;;52.43;26.57;;;;;;;14.63;97.84;102327.88;5032689;28;20478;-44
2022/06/17 04:21:39;;;;;;;29.70;23.23;;;;;;;14.69;97.72;102328.97;5032795;28;20447;-48
2022/06/17 04:24:13;;;;;;;107.97;32.37;;;;;;;14.69;97.49;102334.34;5033379;28;20440;-46
2022/06/17 04:26:43;;;;;;;108.83;31.23;;;;;;;14.68;97.11;102338.88;5033176;28;20435;-49
2022/06/17 04:29:18;;;;;;;138.63;34.43;;;;;;;14.67;96.71;102334.53;5032533;28;20464;-44
2022/06/17 04:31:51;;;;;;;32.43;21.77;;;;;;;14.77;97.27;102340.47;5029693;28;20444;-45
2022/06/17 04:34:19;;;;;;;37.50;22.33;;;;;;;14.83;97.11;102342.41;5024315;28;20425;-46
2022/06/17 04:36:52;;;;;;;33.70;22.27;;;;;;;14.93;97.08;102345.63;5023043;28;20442;-49
2022/06/17 04:39:26;;;;;;;41.50;22.90;;;;;;;15.02;96.06;102341.00;5020861;28;20460;-44
2022/06/17 04:41:59;;;;;;;31.10;19.40;;;;;;;15.09;95.61;102338.38;5032519;28;20487;-45
2022/06/17 04:44:29;;;;;;;29.13;22.50;;;;;;;15.22;94.61;102333.19;5032646;28;20446;-44
2022/06/17 04:47:01;;;;;;;19.63;17.73;;;;;;;15.41;95.12;102333.41;5032553;28;20439;-44
2022/06/17 04:49:32;;;;;;;23.33;19.60;;;;;;;15.65;95.45;102334.13;5032396;28;20448;-43
2022/06/17 04:52:02;;;;;;;41.53;20.67;;;;;;;15.80;93.85;102337.59;5032361;28;20475;-45
2022/06/17 04:54:31;;;;;;;26.03;19.67;;;;;;;16.11;93.39;102334.53;5032490;28;20428;-46
2022/06/17 04:57:02;;;;;;;20.00;17.93;;;;;;;16.46;92.63;102337.09;5032432;28;20450;-43
2022/06/17 04:59:33;;;;;;;19.00;17.40;;;;;;;16.76;89.98;102337.72;5032054;28;20440;-45
2022/06/17 05:02:04;;;;;;;20.43;18.57;;;;;;;17.19;89.43;102334.84;5032368;28;20813;-43
2022/06/17 05:04:32;;;;;;;19.47;17.57;;;;;;;17.61;88.53;102335.44;5032477;28;20778;-44
2022/06/17 05:06:59;;;;;;;21.07;19.27;;;;;;;18.03;85.28;102339.63;5032224;28;20848;-43
2022/06/17 05:09:32;;;;;;;18.27;16.67;;;;;;;18.33;84.05;102342.75;5031855;28;20432;-49
2022/06/17 05:12:05;;;;;;;17.73;16.33;;;;;;;19.07;80.82;102337.81;5031947;28;20452;-44
2022/06/17 05:14:41;;;;;;;22.97;20.87;;;;;;;19.71;71.92;102334.19;5031918;28;20428;-43
2022/06/17 05:17:09;;;;;;;20.50;18.73;;;;;;;20.64;70.33;102335.09;5031725;28;20424;-47
2022/06/17 05:19:37;;;;;;;18.50;16.90;;;;;;;21.51;72.70;102321.91;5031975;28;20921;-48
2022/06/17 05:22:13;;;;;;;16.10;14.70;;;;;;;22.12;68.70;102330.81;5031617;28;20455;-46
2022/06/17 05:24:42;;;;;;;18.40;16.90;;;;;;;22.81;65.99;102330.00;5031963;28;20936;-47
2022/06/17 05:27:11;;;;;;;17.47;16.17;;;;;;;23.53;61.96;102332.06;5031811;28;20786;-44
2022/06/17 05:29:40;;;;;;;17.57;16.23;;;;;;;24.36;59.04;102331.28;5031141;28;20432;-44
2022/06/17 05:32:10;;;;;;;15.80;14.70;;;;;;;25.27;59.02;102327.88;5028665;28;20463;-44
2022/06/17 05:34:38;;;;;;;17.63;16.07;;;;;;;25.80;48.45;102323.53;5023466;28;20435;-45
2022/06/17 05:37:06;;;;;;;15.60;14.27;;;;;;;26.52;53.80;102333.94;5031662;28;20438;-47
2022/06/17 05:39:33;;;;;;;13.60;12.70;;;;;;;27.25;52.17;102344.72;5031768;28;20435;-45
2022/06/17 05:42:01;;;;;;;18.00;16.60;;;;;;;27.69;48.70;102334.13;5031504;28;20456;-48
2022/06/17 05:44:29;;;;;;;15.47;14.23;;;;;;;28.19;48.86;102343.50;5031910;28;20436;-48
2022/06/17 05:46:58;;;;;;;14.77;13.37;;;;;;;28.81;41.25;102352.19;5031739;28;20431;-45
2022/06/17 05:49:26;;;;;;;13.90;12.80;;;;;;;29.21;41.48;102358.63;5031280;28;20494;-46
2022/06/17 05:51:53;;;;;;;14.83;13.63;;;;;;;29.51;44.61;102355.72;5031347;28;20454;-47
2022/06/17 05:54:21;;;;;;;12.03;11.30;;;;;;;29.59;41.46;102344.13;5031866;28;20436;-45
2022/06/17 05:56:49;;;;;;;15.93;14.83;;;;;;;29.80;43.51;102358.53;5031536;28;20223;-45
2022/06/17 05:59:17;;;;;;;19.40;17.60;;;;;;;30.18;39.06;102346.69;5031239;28;20709;-45
2022/06/17 06:01:45;;;;;;;15.70;14.60;;;;;;;29.96;40.33;102349.91;5031223;28;20236;-45
2022/06/17 06:04:14;;;;;;;17.30;16.00;;;;;;;29.47;41.96;102347.22;5031843;28;20200;-51
2022/06/17 06:06:42;;;;;;;13.07;11.97;;;;;;;29.37;42.56;102347.28;5031650;28;20193;-45
2022/06/17 06:09:09;;;;;;;17.27;16.07;;;;;;;28.86;42.81;102343.91;5031181;28;20659;-47
2022/06/17 06:11:37;;;;;;;16.63;15.23;;;;;;;28.87;42.70;102339.25;5031465;28;20219;-47
2022/06/17 06:14:06;;;;;;;16.97;15.77;;;;;;;28.82;43.44;102342.81;5031495;28;20219;-46
2022/06/17 06:16:34;;;;;;;13.90;12.90;;;;;;;29.16;43.59;102334.72;5036356;23;20583;-42
2022/06/17 06:19:02;;;;;;;17.37;15.70;;;;;;;28.94;41.85;102340.59;5003211;28;20256;-43
2022/06/17 06:21:32;;;;;;;14.20;13.30;;;;;;;29.53;42.99;102342.50;5011481;28;20655;-45
2022/06/17 06:23:59;;;;;;;16.37;15.17;;;;;;;30.00;40.98;102337.22;5011841;28;20194;-45
2022/06/17 06:26:27;;;;;;;10.23;9.63;;;;;;;30.55;40.67;102335.06;5011792;28;20221;-43
2022/06/17 06:28:56;;;;;;;14.20;13.10;;;;;;;30.82;39.86;102343.56;5011108;28;20230;-42
2022/06/17 06:31:28;;;;;;;12.07;11.17;;;;;;;30.98;40.36;102339.53;5008694;28;20195;-43
2022/06/17 06:33:56;;;;;;;14.80;13.60;;;;;;;31.31;38.86;102340.44;5003482;28;20245;-43
2022/06/17 06:36:25;;;;;;;13.65;12.75;;;;;;;31.39;38.19;102337.00;5011675;28;20226;-42
2022/06/17 06:38:54;;;;;;;11.37;10.63;;;;;;;31.91;38.56;102333.19;5011205;28;20229;-42
2022/06/17 06:41:22;;;;;;;13.98;12.98;;;;;;;32.17;36.58;102345.47;5013817;28;20204;-42
2022/06/17 06:43:51;;;;;;;12.37;11.47;;;;;;;32.37;37.20;102338.75;5015599;28;20208;-43
2022/06/17 06:46:21;;;;;;;13.13;12.13;;;;;;;32.36;35.53;102339.06;5015132;28;20730;-43
2022/06/17 06:48:54;;;;;;;11.23;10.50;;;;;;;32.02;34.48;102334.69;5014774;28;20247;-42
2022/06/17 06:51:22;;;;;;;11.15;10.35;;;;;;;31.91;36.82;102332.38;5014997;28;20197;-43
2022/06/17 06:53:49;;;;;;;9.57;8.60;;;;;;;32.21;36.87;102340.97;5015004;28;20292;-47
2022/06/17 06:56:18;;;;;;;11.40;10.50;;;;;;;32.32;34.95;102328.63;5014956;28;20232;-44
2022/06/17 06:58:46;;;;;;;10.13;9.32;;;;;;;32.14;36.54;102340.53;5014469;28;20248;-43
2022/06/17 07:01:13;;;;;;;13.10;11.93;;;;;;;32.01;35.05;102332.22;5014872;28;20678;-47
2022/06/17 07:03:41;;;;;;;11.65;10.85;;;;;;;32.04;35.71;102335.22;5015252;28;20609;-42
2022/06/17 07:06:09;;;;;;;9.75;8.98;;;;;;;32.16;35.50;102331.97;5015099;28;20214;-45
2022/06/17 07:08:37;;;;;;;10.13;9.30;;;;;;;32.31;35.90;102324.25;5014531;28;20229;-42
2022/06/17 07:11:07;;;;;;;11.02;10.32;;;;;;;32.66;35.76;102319.16;5014798;28;20563;-42
2022/06/17 07:13:43;;;;;;;11.57;10.55;;;;;;;32.66;33.88;102322.75;5015009;28;20193;-44
2022/06/17 07:16:12;;;;;;;11.60;10.63;;;;;;;32.68;32.32;102328.78;5014984;28;20221;-43
2022/06/17 07:18:40;;;;;;;8.93;8.32;;;;;;;33.12;33.64;102330.94;5014520;28;20249;-42
2022/06/17 07:21:10;;;;;;;8.98;8.27;;;;;;;33.23;33.16;102337.03;5014719;28;20228;-44
2022/06/17 07:23:40;;;;;;;10.70;9.60;;;;;;;33.07;30.97;102328.25;5014800;28;20547;-42
2022/06/17 07:26:12;;;;;;;9.00;8.20;;;;;;;32.83;32.11;102328.47;5014486;28;20217;-42
2022/06/17 07:28:40;;;;;;;7.43;7.00;;;;;;;32.53;33.09;102331.81;5013933;28;20244;-42
2022/06/17 07:31:10;;;;;;;7.15;6.65;;;;;;;32.22;32.31;102317.78;5012650;28;20559;-43
2022/06/17 07:33:38;;;;;;;7.25;6.68;;;;;;;32.29;32.29;102329.22;5005528;28;20200;-42
2022/06/17 07:36:10;;;;;;;11.05;9.75;;;;;;;32.33;32.28;102324.75;5014483;28;20213;-43
2022/06/17 07:41:25;;;;;;;8.02;7.43;;;;;;;32.15;32.49;102322.88;5014007;28;20290;-45
2022/06/17 07:43:53;;;;;;;7.57;6.85;;;;;;;31.72;33.24;102313.91;5013974;28;20208;-43
2022/06/17 07:46:23;;;;;;;7.32;6.13;;;;;;;31.57;31.84;102308.66;5014311;28;20210;-44
2022/06/17 07:48:51;;;;;;;4.82;4.43;;;;;;;31.69;32.20;102308.22;5013464;28;20225;-43
2022/06/17 07:51:19;;;;;;;5.22;4.93;;;;;;;31.71;32.98;102317.00;5013526;28;20201;-44
2022/06/17 07:53:46;;;;;;;5.15;4.85;;;;;;;31.77;32.85;102304.75;5013455;28;20205;-43
2022/06/17 07:56:15;;;;;;;7.32;5.43;;;;;;;31.87;32.63;102296.28;5013599;28;20705;-44
2022/06/17 07:58:44;;;;;;;5.50;5.10;;;;;;;31.59;30.99;102294.56;5013417;28;20225;-42
2022/06/17 08:01:12;;;;;;;5.63;5.30;;;;;;;31.27;30.65;102294.50;5013878;28;20204;-44
2022/06/17 08:03:42;;;;;;;5.28;4.88;;;;;;;31.23;31.96;102302.53;5013783;28;20566;-43
2022/06/17 08:06:13;;;;;;;5.87;4.90;;;;;;;30.94;31.80;102290.84;5013648;28;20610;-42
2022/06/17 08:08:40;;;;;;;9.90;5.90;;;;;;;30.85;32.67;102287.88;5013286;28;20229;-43
2022/06/17 08:11:08;;;;;;;6.70;6.10;;;;;;;30.40;33.23;102291.19;5013293;28;20216;-43
2022/06/17 08:13:37;;;;;;;5.13;4.83;;;;;;;30.21;33.28;102298.50;5013745;28;20202;-46
2022/06/17 08:16:07;;;;;;;6.37;5.73;;;;;;;30.05;33.58;102301.41;5006551;28;20229;-42
2022/06/17 08:18:37;;;;;;;6.10;5.57;;;;;;;30.01;33.23;102299.53;5003823;28;20226;-42
2022/06/17 08:21:07;;;;;;;7.87;5.43;;;;;;;29.69;33.35;102296.50;5013255;28;20201;-42
2022/06/17 08:23:34;;;;;;;6.00;5.30;;;;;;;29.14;33.62;102298.47;5013416;28;20209;-43
2022/06/17 08:26:02;;;;;;;5.50;5.10;;;;;;;29.08;34.17;102289.44;5013629;28;20222;-42
2022/06/17 08:28:30;;;;;;;5.80;5.30;;;;;;;28.87;35.43;102295.31;5013187;28;20448;-42
2022/06/17 08:30:58;;;;;;;5.90;5.50;;;;;;;28.58;35.90;102295.13;5012879;28;20448;-42
2022/06/17 08:33:29;;;;;;;5.20;4.90;;;;;;;28.43;36.81;102295.19;5002738;28;20433;-42
2022/06/17 08:36:14;;;;;;;5.60;5.20;;;;;;;28.14;37.10;102291.38;5013155;28;21031;-42
2022/06/17 08:38:46;;;;;;;5.53;5.10;;;;;;;27.76;37.38;102298.25;5012620;28;20472;-43
2022/06/17 08:41:26;;;;;;;5.50;5.20;;;;;;;27.54;36.84;102303.16;5013016;28;20432;-42
2022/06/17 08:44:15;;;;;;;6.47;5.83;;;;;;;27.47;38.10;102295.22;5013155;28;20447;-42
2022/06/17 08:46:56;;;;;;;5.60;5.10;;;;;;;27.50;38.25;102302.06;5013052;28;20455;-41
2022/06/17 08:49:44;;;;;;;8.37;5.80;;;;;;;27.30;39.14;102300.88;5012710;28;20993;-43
2022/06/17 08:52:33;;;;;;;6.87;6.37;;;;;;;27.23;39.37;102303.06;5012788;28;20798;-43
2022/06/17 08:55:08;;;;;;;6.60;6.20;;;;;;;27.40;38.28;102298.19;5013039;28;20437;-45
2022/06/17 08:57:43;;;;;;;5.70;5.20;;;;;;;27.22;39.45;102298.69;5012344;28;20510;-42
2022/06/17 09:00:17;;;;;;;5.70;5.37;;;;;;;27.46;39.38;102296.28;5012978;28;20432;-43
2022/06/17 09:03:12;;;;;;;5.20;4.80;;;;;;;27.65;38.81;102299.34;5012520;28;20949;-43
2022/06/17 09:05:49;;;;;;;5.23;4.93;;;;;;;27.59;38.64;102303.16;5012750;28;20535;-43
2022/06/17 09:08:35;;;;;;;5.40;5.00;;;;;;;27.42;38.18;102295.19;5012089;28;20464;-45
2022/06/17 09:11:15;;;;;;;6.07;5.70;;;;;;;26.96;39.19;102302.44;5012573;28;20467;-42
2022/06/17 09:13:59;;;;;;;5.60;5.10;;;;;;;26.99;40.30;102303.81;5012702;28;20440;-42
2022/06/17 09:16:36;;;;;;;4.70;4.33;;;;;;;27.08;40.65;102289.34;5012371;28;20467;-43
2022/06/17 09:19:04;;;;;;;5.50;4.63;;;;;;;26.97;38.36;102298.59;5011972;28;20523;-42
2022/06/17 09:21:36;;;;;;;5.60;5.07;;;;;;;26.92;38.78;102293.94;5012314;28;20444;-43
2022/06/17 09:24:07;;;;;;;5.30;4.90;;;;;;;26.73;39.06;102292.72;5012603;28;20431;-42
2022/06/17 09:26:42;;;;;;;4.63;4.30;;;;;;;26.88;39.47;102298.28;5012437;28;20451;-42
2022/06/17 09:29:16;;;;;;;5.30;4.90;;;;;;;26.96;39.61;102291.50;5011896;28;20989;-43
2022/06/17 09:31:49;;;;;;;6.00;5.20;;;;;;;26.83;39.71;102300.19;5009027;28;20443;-43
2022/06/17 09:34:23;;;;;;;5.63;5.30;;;;;;;27.06;39.27;102293.44;5004183;28;20956;-42
2022/06/17 09:36:56;;;;;;;7.20;6.40;;;;;;;27.39;38.59;102284.72;5012617;28;20455;-43
2022/06/17 09:39:30;;;;;;;6.40;5.90;;;;;;;27.65;37.75;102285.63;5011719;28;20514;-43
2022/06/17 09:42:04;;;;;;;7.77;5.80;;;;;;;27.71;38.35;102282.63;5012043;28;20432;-44
2022/06/17 09:44:40;;;;;;;6.93;5.37;;;;;;;27.77;37.73;102275.22;5012087;28;20428;-44
2022/06/17 09:47:14;;;;;;;6.30;5.80;;;;;;;27.67;37.46;102269.72;5012062;28;20456;-43
2022/06/17 09:49:49;;;;;;;6.57;5.97;;;;;;;27.62;37.67;102261.50;5012265;28;20432;-43
2022/06/17 09:52:21;;;;;;;5.10;4.77;;;;;;;27.67;37.89;102266.97;5012056;28;20428;-42
2022/06/17 09:54:55;;;;;;;4.63;4.33;;;;;;;27.62;36.09;102267.81;5012102;28;20429;-42
2022/06/17 09:57:29;;;;;;;5.10;4.70;;;;;;;27.72;37.52;102258.75;5011646;28;20480;-44
2022/06/17 10:00:01;;;;;;;6.40;5.90;;;;;;;27.69;37.86;102268.34;5012023;28;20428;-43
2022/06/17 10:02:35;;;;;;;5.30;4.80;;;;;;;27.83;36.48;102263.16;5011881;28;20441;-45
2022/06/17 10:05:14;;;;;;;6.00;5.40;;;;;;;27.77;36.92;102256.84;5012045;28;20440;-45
2022/06/17 10:07:49;;;;;;;6.50;5.90;;;;;;;27.80;37.55;102266.44;5011311;28;20500;-45
2022/06/17 10:10:28;;;;;;;5.70;5.10;;;;;;;27.58;37.06;102269.44;5011664;28;20963;-44
2022/06/17 10:13:10;;;;;;;6.30;5.70;;;;;;;27.64;36.36;102265.63;5012086;28;20439;-43
2022/06/17 10:18:31;;;;;;;5.67;5.17;;;;;;;27.57;36.88;102259.56;5013055;28;20468;-42
2022/06/17 10:18:47;;;;;;;6.23;5.70;;;;;;;27.49;36.97;102262.88;5015332;28;20476;-44
2022/06/17 10:21:31;;;;;;;5.80;5.33;;;;;;;27.64;37.41;102267.53;5015580;28;20424;-42
2022/06/17 10:24:08;;;;;;;6.67;5.80;;;;;;;27.70;37.81;102266.44;5015746;28;20448;-44
2022/06/17 10:26:53;;;;;;;6.80;6.30;;;;;;;27.88;36.67;102271.38;5015981;28;20446;-46
2022/06/17 10:29:50;;;;;;;8.10;5.40;;;;;;;27.85;37.06;102271.91;5015113;28;20461;-43
2022/06/17 10:32:17;;;;;;;6.03;5.40;;;;;;;27.83;36.74;102274.94;5010747;28;20787;-42
2022/06/17 10:34:49;;;;;;;6.37;5.90;;;;;;;27.82;37.38;102273.28;5007396;28;20948;-44
2022/06/17 10:37:17;;;;;;;6.37;5.83;;;;;;;27.88;37.85;102279.59;5015209;28;20444;-46
2022/06/17 10:40:09;;;;;;;5.63;5.30;;;;;;;27.77;37.79;102276.03;5015428;28;20432;-42
2022/06/17 10:42:38;;;;;;;6.87;5.43;;;;;;;27.75;38.18;102277.38;5015402;28;20446;-43
2022/06/17 10:45:14;;;;;;;4.93;4.60;;;;;;;27.56;37.19;102279.03;5015328;28;20444;-43
2022/06/17 10:47:50;;;;;;;4.37;3.97;;;;;;;27.42;37.01;102278.75;5014904;28;20470;-44
2022/06/17 10:50:22;;;;;;;7.00;4.80;;;;;;;27.24;36.69;102282.78;5015058;28;20432;-43
2022/06/17 10:52:55;;;;;;;5.93;5.43;;;;;;;26.80;37.37;102287.88;5015213;28;20502;-43
2022/06/17 10:55:32;;;;;;;6.20;5.60;;;;;;;26.48;38.87;102289.03;5014999;28;20428;-44
2022/06/17 10:58:16;;;;;;;10.40;5.97;;;;;;;26.10;39.47;102284.69;5014410;28;20472;-42
2022/06/17 11:00:53;;;;;;;4.97;4.63;;;;;;;26.05;39.95;102280.00;5014857;28;20482;-42
2022/06/17 11:03:24;;;;;;;4.90;4.50;;;;;;;26.04;39.81;102283.00;5014914;28;20441;-42
2022/06/17 11:05:56;;;;;;;4.90;4.60;;;;;;;26.03;38.71;102282.16;5014849;28;20448;-43
2022/06/17 11:08:28;;;;;;;6.33;5.70;;;;;;;26.08;38.26;102282.19;5014400;28;20498;-43
2022/06/17 11:12:02;;;;;;;6.30;5.87;;;;;;;25.89;38.71;102277.41;5014472;28;20435;-43
2022/06/17 11:13:49;;;;;;;5.57;5.10;;;;;;;25.71;39.64;102279.47;5014494;28;20779;-42
2022/06/17 11:16:22;;;;;;;6.87;5.73;;;;;;;25.50;39.75;102283.09;5014483;28;20492;-42
2022/06/17 11:18:55;;;;;;;4.43;4.10;;;;;;;25.27;39.17;102288.81;5014253;28;20563;-42
2022/06/17 11:21:26;;;;;;;4.60;4.40;;;;;;;25.06;39.96;102285.03;5014248;28;20922;-42
2022/06/17 11:23:57;;;;;;;4.70;4.40;;;;;;;24.87;39.85;102294.66;5014543;28;20436;-43
2022/06/17 11:26:27;;;;;;;4.60;4.40;;;;;;;24.58;40.93;102293.97;5013833;28;20449;-43
2022/06/17 11:28:59;;;;;;;5.60;5.20;;;;;;;24.40;41.43;102294.25;5013442;28;21051;-43
2022/06/17 11:31:41;;;;;;;5.37;4.93;;;;;;;24.44;42.20;102297.31;5011260;28;20438;-42
2022/06/17 11:34:16;;;;;;;5.63;4.80;;;;;;;24.39;42.01;102298.06;5006394;28;20436;-44
2022/06/17 11:36:56;;;;;;;5.40;4.70;;;;;;;24.32;43.34;102302.03;5014285;28;20452;-44
2022/06/17 11:39:33;;;;;;;5.57;5.07;;;;;;;24.33;42.85;102303.69;5013599;28;20571;-43
2022/06/17 11:42:13;;;;;;;4.60;4.40;;;;;;;24.36;43.80;102304.03;5014080;28;20436;-43